sensor_id;sensor_type;location;lat;lon;timestamp;P1;durP1;ratioP1;P2;durP2;ratioP2
53391;SDS011;41667;51.922;8.850;2024-02-21T00:00:40;19.02;;;6.57;;
53391;SDS011;41667;51.922;8.850;2024-02-21T00:03:06;26.67;;;9.23;;
53391;SDS011;41667;51.922;8.850;2024-02-21T00:05:32;19.40;;;6.20;;
53391;SDS011;41667;51.922;8.850;2024-02-21T00:07:58;15.15;;;6.72;;
53391;SDS011;41667;51.922;8.850;2024-02-21T00:10:24;19.25;;;6.25;;
53391;SDS011;41667;51.922;8.850;2024-02-21T00:12:50;19.52;;;7.32;;
53391;SDS011;41667;51.922;8.850;2024-02-21T00:15:15;10.27;;;6.78;;
53391;SDS011;41667;51.922;8.850;2024-02-21T00:17:40;14.13;;;6.60;;
53391;SDS011;41667;51.922;8.850;2024-02-21T00:20:06;15.13;;;7.05;;
53391;SDS011;41667;51.922;8.850;2024-02-21T00:22:32;15.65;;;6.90;;
53391;SDS011;41667;51.922;8.850;2024-02-21T00:24:58;13.00;;;5.40;;
53391;SDS011;41667;51.922;8.850;2024-02-21T00:27:24;14.00;;;6.28;;
53391;SDS011;41667;51.922;8.850;2024-02-21T00:29:49;14.13;;;6.90;;
53391;SDS011;41667;51.922;8.850;2024-02-21T00:32:15;16.85;;;7.50;;
53391;SDS011;41667;51.922;8.850;2024-02-21T00:34:40;18.23;;;7.05;;
53391;SDS011;41667;51.922;8.850;2024-02-21T00:37:05;14.60;;;7.70;;
53391;SDS011;41667;51.922;8.850;2024-02-21T00:39:31;19.38;;;7.68;;
53391;SDS011;41667;51.922;8.850;2024-02-21T00:41:56;20.88;;;7.22;;
53391;SDS011;41667;51.922;8.850;2024-02-21T00:44:21;13.35;;;7.43;;
53391;SDS011;41667;51.922;8.850;2024-02-21T00:46:47;12.07;;;6.72;;
53391;SDS011;41667;51.922;8.850;2024-02-21T00:49:12;17.63;;;7.57;;
53391;SDS011;41667;51.922;8.850;2024-02-21T00:51:37;22.05;;;10.07;;
53391;SDS011;41667;51.922;8.850;2024-02-21T00:54:03;18.75;;;8.70;;
53391;SDS011;41667;51.922;8.850;2024-02-21T00:56:28;20.20;;;6.50;;
53391;SDS011;41667;51.922;8.850;2024-02-21T00:58:54;20.55;;;8.40;;
53391;SDS011;41667;51.922;8.850;2024-02-21T01:01:23;24.55;;;9.38;;
53391;SDS011;41667;51.922;8.850;2024-02-21T01:03:49;23.45;;;8.82;;
53391;SDS011;41667;51.922;8.850;2024-02-21T01:06:14;17.45;;;7.53;;
53391;SDS011;41667;51.922;8.850;2024-02-21T01:08:39;15.25;;;6.25;;
53391;SDS011;41667;51.922;8.850;2024-02-21T01:11:05;15.13;;;7.70;;
53391;SDS011;41667;51.922;8.850;2024-02-21T01:13:30;18.45;;;7.63;;
53391;SDS011;41667;51.922;8.850;2024-02-21T01:15:55;17.08;;;7.85;;
53391;SDS011;41667;51.922;8.850;2024-02-21T01:18:21;15.15;;;6.97;;
53391;SDS011;41667;51.922;8.850;2024-02-21T01:20:46;15.73;;;7.05;;
53391;SDS011;41667;51.922;8.850;2024-02-21T01:23:11;19.65;;;8.15;;
53391;SDS011;41667;51.922;8.850;2024-02-21T01:25:36;17.67;;;7.60;;
53391;SDS011;41667;51.922;8.850;2024-02-21T01:28:02;17.90;;;8.13;;
53391;SDS011;41667;51.922;8.850;2024-02-21T01:30:27;21.60;;;8.55;;
53391;SDS011;41667;51.922;8.850;2024-02-21T01:32:52;19.08;;;7.95;;
53391;SDS011;41667;51.922;8.850;2024-02-21T01:35:18;16.23;;;8.48;;
53391;SDS011;41667;51.922;8.850;2024-02-21T01:37:43;19.73;;;7.45;;
53391;SDS011;41667;51.922;8.850;2024-02-21T01:40:09;18.13;;;8.13;;
53391;SDS011;41667;51.922;8.850;2024-02-21T01:42:37;21.77;;;7.38;;
53391;SDS011;41667;51.922;8.850;2024-02-21T01:45:04;20.67;;;8.75;;
53391;SDS011;41667;51.922;8.850;2024-02-21T01:47:29;15.60;;;8.68;;
53391;SDS011;41667;51.922;8.850;2024-02-21T01:49:54;23.05;;;9.30;;
53391;SDS011;41667;51.922;8.850;2024-02-21T01:52:20;21.67;;;8.77;;
53391;SDS011;41667;51.922;8.850;2024-02-21T01:54:45;17.17;;;8.80;;
53391;SDS011;41667;51.922;8.850;2024-02-21T01:57:11;18.80;;;7.28;;
53391;SDS011;41667;51.922;8.850;2024-02-21T01:59:37;14.38;;;7.57;;
53391;SDS011;41667;51.922;8.850;2024-02-21T02:02:02;14.55;;;7.90;;
53391;SDS011;41667;51.922;8.850;2024-02-21T02:04:27;20.42;;;9.75;;
53391;SDS011;41667;51.922;8.850;2024-02-21T02:06:54;18.55;;;8.85;;
53391;SDS011;41667;51.922;8.850;2024-02-21T02:09:19;21.48;;;9.52;;
53391;SDS011;41667;51.922;8.850;2024-02-21T02:11:45;21.27;;;8.50;;
53391;SDS011;41667;51.922;8.850;2024-02-21T02:14:10;25.25;;;10.30;;
53391;SDS011;41667;51.922;8.850;2024-02-21T02:16:35;19.13;;;9.50;;
53391;SDS011;41667;51.922;8.850;2024-02-21T02:19:01;13.48;;;6.68;;
53391;SDS011;41667;51.922;8.850;2024-02-21T02:21:29;22.23;;;9.80;;
53391;SDS011;41667;51.922;8.850;2024-02-21T02:23:55;15.32;;;8.00;;
53391;SDS011;41667;51.922;8.850;2024-02-21T02:26:21;23.95;;;9.88;;
53391;SDS011;41667;51.922;8.850;2024-02-21T02:28:46;18.42;;;8.38;;
53391;SDS011;41667;51.922;8.850;2024-02-21T02:31:11;12.68;;;7.20;;
53391;SDS011;41667;51.922;8.850;2024-02-21T02:33:37;19.27;;;9.55;;
53391;SDS011;41667;51.922;8.850;2024-02-21T02:36:02;19.40;;;9.10;;
53391;SDS011;41667;51.922;8.850;2024-02-21T02:38:27;14.13;;;7.43;;
53391;SDS011;41667;51.922;8.850;2024-02-21T02:40:53;20.40;;;9.98;;
53391;SDS011;41667;51.922;8.850;2024-02-21T02:43:18;23.63;;;8.90;;
53391;SDS011;41667;51.922;8.850;2024-02-21T02:45:43;15.88;;;7.50;;
53391;SDS011;41667;51.922;8.850;2024-02-21T02:48:08;19.85;;;8.63;;
53391;SDS011;41667;51.922;8.850;2024-02-21T02:50:34;16.13;;;9.13;;
53391;SDS011;41667;51.922;8.850;2024-02-21T02:52:59;15.93;;;7.25;;
53391;SDS011;41667;51.922;8.850;2024-02-21T02:55:24;19.58;;;8.45;;
53391;SDS011;41667;51.922;8.850;2024-02-21T02:57:51;16.13;;;8.07;;
53391;SDS011;41667;51.922;8.850;2024-02-21T03:00:16;16.73;;;7.38;;
53391;SDS011;41667;51.922;8.850;2024-02-21T03:02:42;16.20;;;7.75;;
53391;SDS011;41667;51.922;8.850;2024-02-21T03:05:13;14.50;;;8.00;;
53391;SDS011;41667;51.922;8.850;2024-02-21T03:07:42;15.88;;;7.57;;
53391;SDS011;41667;51.922;8.850;2024-02-21T03:10:08;16.45;;;8.15;;
53391;SDS011;41667;51.922;8.850;2024-02-21T03:12:34;18.35;;;9.48;;
53391;SDS011;41667;51.922;8.850;2024-02-21T03:14:59;16.15;;;8.02;;
53391;SDS011;41667;51.922;8.850;2024-02-21T03:17:25;18.25;;;8.15;;
53391;SDS011;41667;51.922;8.850;2024-02-21T03:19:52;14.93;;;7.38;;
53391;SDS011;41667;51.922;8.850;2024-02-21T03:22:17;18.17;;;8.32;;
53391;SDS011;41667;51.922;8.850;2024-02-21T03:24:42;13.52;;;6.95;;
53391;SDS011;41667;51.922;8.850;2024-02-21T03:27:08;18.58;;;8.25;;
53391;SDS011;41667;51.922;8.850;2024-02-21T03:29:33;18.10;;;8.52;;
53391;SDS011;41667;51.922;8.850;2024-02-21T03:31:59;19.23;;;8.43;;
53391;SDS011;41667;51.922;8.850;2024-02-21T03:34:24;7.30;;;5.20;;
53391;SDS011;41667;51.922;8.850;2024-02-21T03:36:49;14.80;;;7.78;;
53391;SDS011;41667;51.922;8.850;2024-02-21T03:39:15;21.25;;;9.73;;
53391;SDS011;41667;51.922;8.850;2024-02-21T03:41:40;13.82;;;7.32;;
53391;SDS011;41667;51.922;8.850;2024-02-21T03:44:05;23.45;;;8.30;;
53391;SDS011;41667;51.922;8.850;2024-02-21T03:46:31;12.73;;;7.45;;
53391;SDS011;41667;51.922;8.850;2024-02-21T03:48:56;13.30;;;6.47;;
53391;SDS011;41667;51.922;8.850;2024-02-21T03:51:22;14.07;;;6.80;;
53391;SDS011;41667;51.922;8.850;2024-02-21T03:53:47;18.25;;;7.78;;
53391;SDS011;41667;51.922;8.850;2024-02-21T03:56:12;23.38;;;7.57;;
53391;SDS011;41667;51.922;8.850;2024-02-21T03:58:37;15.07;;;7.13;;
53391;SDS011;41667;51.922;8.850;2024-02-21T04:01:03;11.30;;;6.88;;
53391;SDS011;41667;51.922;8.850;2024-02-21T04:03:28;19.95;;;8.40;;
53391;SDS011;41667;51.922;8.850;2024-02-21T04:05:55;19.73;;;9.07;;
53391;SDS011;41667;51.922;8.850;2024-02-21T04:08:21;12.50;;;6.68;;
53391;SDS011;41667;51.922;8.850;2024-02-21T04:10:47;15.40;;;8.32;;
53391;SDS011;41667;51.922;8.850;2024-02-21T04:13:12;13.77;;;7.90;;
53391;SDS011;41667;51.922;8.850;2024-02-21T04:15:37;14.50;;;6.43;;
53391;SDS011;41667;51.922;8.850;2024-02-21T04:18:03;18.38;;;7.10;;
53391;SDS011;41667;51.922;8.850;2024-02-21T04:20:28;15.73;;;7.82;;
53391;SDS011;41667;51.922;8.850;2024-02-21T04:22:53;15.27;;;5.88;;
53391;SDS011;41667;51.922;8.850;2024-02-21T04:25:19;18.70;;;7.75;;
53391;SDS011;41667;51.922;8.850;2024-02-21T04:27:44;12.63;;;6.32;;
53391;SDS011;41667;51.922;8.850;2024-02-21T04:30:10;14.18;;;7.00;;
53391;SDS011;41667;51.922;8.850;2024-02-21T04:32:35;12.77;;;6.75;;
53391;SDS011;41667;51.922;8.850;2024-02-21T04:35:00;14.15;;;7.13;;
53391;SDS011;41667;51.922;8.850;2024-02-21T04:37:26;9.57;;;3.13;;
53391;SDS011;41667;51.922;8.850;2024-02-21T04:39:51;15.85;;;5.43;;
53391;SDS011;41667;51.922;8.850;2024-02-21T04:42:16;10.65;;;6.07;;
53391;SDS011;41667;51.922;8.850;2024-02-21T04:44:42;20.13;;;7.25;;
53391;SDS011;41667;51.922;8.850;2024-02-21T04:47:07;15.07;;;7.18;;
53391;SDS011;41667;51.922;8.850;2024-02-21T04:49:33;12.27;;;5.85;;
53391;SDS011;41667;51.922;8.850;2024-02-21T04:51:58;16.08;;;7.10;;
53391;SDS011;41667;51.922;8.850;2024-02-21T04:54:24;14.88;;;5.88;;
53391;SDS011;41667;51.922;8.850;2024-02-21T04:56:50;10.38;;;5.90;;
53391;SDS011;41667;51.922;8.850;2024-02-21T04:59:15;10.80;;;5.25;;
53391;SDS011;41667;51.922;8.850;2024-02-21T05:01:40;13.60;;;6.20;;
53391;SDS011;41667;51.922;8.850;2024-02-21T05:04:06;13.10;;;5.95;;
53391;SDS011;41667;51.922;8.850;2024-02-21T05:06:31;13.98;;;5.65;;
53391;SDS011;41667;51.922;8.850;2024-02-21T05:08:56;15.55;;;6.40;;
53391;SDS011;41667;51.922;8.850;2024-02-21T05:11:22;15.45;;;6.28;;
53391;SDS011;41667;51.922;8.850;2024-02-21T05:13:48;10.70;;;5.28;;
53391;SDS011;41667;51.922;8.850;2024-02-21T05:16:13;10.50;;;5.82;;
53391;SDS011;41667;51.922;8.850;2024-02-21T05:18:40;15.73;;;6.63;;
53391;SDS011;41667;51.922;8.850;2024-02-21T05:21:05;16.40;;;7.03;;
53391;SDS011;41667;51.922;8.850;2024-02-21T05:23:30;9.70;;;3.88;;
53391;SDS011;41667;51.922;8.850;2024-02-21T05:25:56;13.40;;;6.53;;
53391;SDS011;41667;51.922;8.850;2024-02-21T05:28:21;13.10;;;7.13;;
53391;SDS011;41667;51.922;8.850;2024-02-21T05:30:46;9.23;;;3.88;;
53391;SDS011;41667;51.922;8.850;2024-02-21T05:33:11;16.10;;;6.90;;
53391;SDS011;41667;51.922;8.850;2024-02-21T05:35:37;15.23;;;8.27;;
53391;SDS011;41667;51.922;8.850;2024-02-21T05:38:03;12.00;;;7.00;;
53391;SDS011;41667;51.922;8.850;2024-02-21T05:40:36;19.15;;;6.82;;
53391;SDS011;41667;51.922;8.850;2024-02-21T05:43:01;15.38;;;7.38;;
53391;SDS011;41667;51.922;8.850;2024-02-21T05:45:27;16.27;;;7.00;;
53391;SDS011;41667;51.922;8.850;2024-02-21T05:47:52;4.90;;;3.60;;
53391;SDS011;41667;51.922;8.850;2024-02-21T05:50:17;15.75;;;6.90;;
53391;SDS011;41667;51.922;8.850;2024-02-21T05:52:43;14.13;;;7.35;;
53391;SDS011;41667;51.922;8.850;2024-02-21T05:55:08;16.77;;;6.93;;
53391;SDS011;41667;51.922;8.850;2024-02-21T05:57:36;14.20;;;5.75;;
53391;SDS011;41667;51.922;8.850;2024-02-21T06:00:05;15.05;;;7.95;;
53391;SDS011;41667;51.922;8.850;2024-02-21T06:02:31;13.48;;;7.65;;
53391;SDS011;41667;51.922;8.850;2024-02-21T06:04:56;20.10;;;8.02;;
53391;SDS011;41667;51.922;8.850;2024-02-21T06:07:21;14.80;;;6.15;;
53391;SDS011;41667;51.922;8.850;2024-02-21T06:09:47;17.45;;;6.72;;
53391;SDS011;41667;51.922;8.850;2024-02-21T06:12:12;23.23;;;7.80;;
53391;SDS011;41667;51.922;8.850;2024-02-21T06:14:37;10.60;;;6.10;;
53391;SDS011;41667;51.922;8.850;2024-02-21T06:17:03;12.77;;;6.80;;
53391;SDS011;41667;51.922;8.850;2024-02-21T06:19:28;14.85;;;6.75;;
53391;SDS011;41667;51.922;8.850;2024-02-21T06:21:53;13.27;;;6.95;;
53391;SDS011;41667;51.922;8.850;2024-02-21T06:24:19;20.05;;;7.88;;
53391;SDS011;41667;51.922;8.850;2024-02-21T06:26:44;13.75;;;8.48;;
53391;SDS011;41667;51.922;8.850;2024-02-21T06:29:09;11.57;;;7.30;;
53391;SDS011;41667;51.922;8.850;2024-02-21T06:31:35;15.30;;;7.47;;
53391;SDS011;41667;51.922;8.850;2024-02-21T06:34:01;20.67;;;6.50;;
53391;SDS011;41667;51.922;8.850;2024-02-21T06:36:26;31.48;;;9.77;;
53391;SDS011;41667;51.922;8.850;2024-02-21T06:38:52;18.27;;;7.18;;
53391;SDS011;41667;51.922;8.850;2024-02-21T06:41:17;22.42;;;8.50;;
53391;SDS011;41667;51.922;8.850;2024-02-21T06:43:44;17.33;;;7.82;;
53391;SDS011;41667;51.922;8.850;2024-02-21T06:46:10;12.95;;;6.22;;
53391;SDS011;41667;51.922;8.850;2024-02-21T06:48:36;11.65;;;5.70;;
53391;SDS011;41667;51.922;8.850;2024-02-21T06:51:01;14.43;;;6.97;;
53391;SDS011;41667;51.922;8.850;2024-02-21T06:53:26;14.77;;;6.97;;
53391;SDS011;41667;51.922;8.850;2024-02-21T06:55:52;21.67;;;6.68;;
53391;SDS011;41667;51.922;8.850;2024-02-21T06:58:17;10.13;;;5.63;;
53391;SDS011;41667;51.922;8.850;2024-02-21T07:00:42;12.00;;;5.47;;
53391;SDS011;41667;51.922;8.850;2024-02-21T07:03:07;14.85;;;6.20;;
53391;SDS011;41667;51.922;8.850;2024-02-21T07:05:33;11.18;;;5.68;;
53391;SDS011;41667;51.922;8.850;2024-02-21T07:07:58;14.25;;;6.03;;
53391;SDS011;41667;51.922;8.850;2024-02-21T07:10:23;13.00;;;6.18;;
53391;SDS011;41667;51.922;8.850;2024-02-21T07:12:49;14.73;;;6.15;;
53391;SDS011;41667;51.922;8.850;2024-02-21T07:15:14;13.40;;;6.45;;
53391;SDS011;41667;51.922;8.850;2024-02-21T07:17:39;10.52;;;6.03;;
53391;SDS011;41667;51.922;8.850;2024-02-21T07:20:05;12.82;;;5.70;;
53391;SDS011;41667;51.922;8.850;2024-02-21T07:22:30;14.35;;;5.65;;
53391;SDS011;41667;51.922;8.850;2024-02-21T07:24:56;11.25;;;5.68;;
53391;SDS011;41667;51.922;8.850;2024-02-21T07:27:21;17.42;;;6.95;;
53391;SDS011;41667;51.922;8.850;2024-02-21T07:29:46;13.30;;;5.95;;
53391;SDS011;41667;51.922;8.850;2024-02-21T07:32:13;7.05;;;5.57;;
53391;SDS011;41667;51.922;8.850;2024-02-21T07:34:39;11.05;;;5.47;;
53391;SDS011;41667;51.922;8.850;2024-02-21T07:37:04;10.27;;;5.22;;
53391;SDS011;41667;51.922;8.850;2024-02-21T07:39:29;9.63;;;5.15;;
53391;SDS011;41667;51.922;8.850;2024-02-21T07:41:54;12.75;;;5.63;;
53391;SDS011;41667;51.922;8.850;2024-02-21T07:44:20;8.73;;;4.97;;
53391;SDS011;41667;51.922;8.850;2024-02-21T07:46:45;8.55;;;5.07;;
53391;SDS011;41667;51.922;8.850;2024-02-21T07:49:10;16.08;;;6.72;;
53391;SDS011;41667;51.922;8.850;2024-02-21T07:51:36;11.27;;;5.32;;
53391;SDS011;41667;51.922;8.850;2024-02-21T07:54:01;8.35;;;5.10;;
53391;SDS011;41667;51.922;8.850;2024-02-21T07:56:27;9.88;;;5.38;;
53391;SDS011;41667;51.922;8.850;2024-02-21T07:58:52;12.88;;;6.13;;
53391;SDS011;41667;51.922;8.850;2024-02-21T08:01:18;12.65;;;4.97;;
53391;SDS011;41667;51.922;8.850;2024-02-21T08:03:45;13.93;;;5.30;;
53391;SDS011;41667;51.922;8.850;2024-02-21T08:06:11;11.27;;;5.13;;
53391;SDS011;41667;51.922;8.850;2024-02-21T08:08:37;10.65;;;6.25;;
53391;SDS011;41667;51.922;8.850;2024-02-21T08:11:02;12.07;;;5.07;;
53391;SDS011;41667;51.922;8.850;2024-02-21T08:13:28;14.30;;;5.45;;
53391;SDS011;41667;51.922;8.850;2024-02-21T08:15:53;5.50;;;4.40;;
53391;SDS011;41667;51.922;8.850;2024-02-21T08:18:19;11.52;;;5.47;;
53391;SDS011;41667;51.922;8.850;2024-02-21T08:20:44;12.85;;;5.80;;
53391;SDS011;41667;51.922;8.850;2024-02-21T08:23:09;9.05;;;5.10;;
53391;SDS011;41667;51.922;8.850;2024-02-21T08:25:34;6.50;;;4.65;;
53391;SDS011;41667;51.922;8.850;2024-02-21T08:28:00;9.40;;;5.35;;
53391;SDS011;41667;51.922;8.850;2024-02-21T08:30:25;17.98;;;6.15;;
53391;SDS011;41667;51.922;8.850;2024-02-21T08:32:51;10.02;;;4.90;;
53391;SDS011;41667;51.922;8.850;2024-02-21T08:35:16;12.02;;;5.10;;
53391;SDS011;41667;51.922;8.850;2024-02-21T08:37:45;8.98;;;4.38;;
53391;SDS011;41667;51.922;8.850;2024-02-21T08:40:13;13.90;;;5.32;;
53391;SDS011;41667;51.922;8.850;2024-02-21T08:42:39;10.30;;;4.85;;
53391;SDS011;41667;51.922;8.850;2024-02-21T08:45:04;9.07;;;6.38;;
53391;SDS011;41667;51.922;8.850;2024-02-21T08:47:30;9.65;;;4.90;;
53391;SDS011;41667;51.922;8.850;2024-02-21T08:49:55;13.50;;;5.20;;
53391;SDS011;41667;51.922;8.850;2024-02-21T08:52:21;8.85;;;4.68;;
53391;SDS011;41667;51.922;8.850;2024-02-21T08:54:46;6.72;;;3.72;;
53391;SDS011;41667;51.922;8.850;2024-02-21T08:57:12;7.78;;;4.50;;
53391;SDS011;41667;51.922;8.850;2024-02-21T08:59:38;6.53;;;4.47;;
53391;SDS011;41667;51.922;8.850;2024-02-21T09:02:04;14.07;;;4.95;;
53391;SDS011;41667;51.922;8.850;2024-02-21T09:04:29;8.80;;;4.13;;
53391;SDS011;41667;51.922;8.850;2024-02-21T09:06:55;12.50;;;5.50;;
53391;SDS011;41667;51.922;8.850;2024-02-21T09:09:21;10.27;;;4.25;;
53391;SDS011;41667;51.922;8.850;2024-02-21T09:11:46;5.95;;;4.13;;
53391;SDS011;41667;51.922;8.850;2024-02-21T09:14:11;7.95;;;4.03;;
53391;SDS011;41667;51.922;8.850;2024-02-21T09:16:37;8.40;;;3.92;;
53391;SDS011;41667;51.922;8.850;2024-02-21T09:19:02;8.13;;;4.03;;
53391;SDS011;41667;51.922;8.850;2024-02-21T09:21:27;7.55;;;3.13;;
53391;SDS011;41667;51.922;8.850;2024-02-21T09:23:53;9.93;;;3.58;;
53391;SDS011;41667;51.922;8.850;2024-02-21T09:26:18;10.85;;;4.05;;
53391;SDS011;41667;51.922;8.850;2024-02-21T09:28:43;7.82;;;4.15;;
53391;SDS011;41667;51.922;8.850;2024-02-21T09:31:10;7.07;;;3.78;;
53391;SDS011;41667;51.922;8.850;2024-02-21T09:33:35;9.35;;;3.15;;
53391;SDS011;41667;51.922;8.850;2024-02-21T09:36:00;12.07;;;3.13;;
53391;SDS011;41667;51.922;8.850;2024-02-21T09:38:26;9.88;;;4.15;;
53391;SDS011;41667;51.922;8.850;2024-02-21T09:40:54;4.60;;;2.72;;
53391;SDS011;41667;51.922;8.850;2024-02-21T09:43:28;6.70;;;3.35;;
53391;SDS011;41667;51.922;8.850;2024-02-21T09:45:54;7.03;;;3.17;;
53391;SDS011;41667;51.922;8.850;2024-02-21T09:50:57;7.53;;;3.45;;
53391;SDS011;41667;51.922;8.850;2024-02-21T09:53:24;6.07;;;2.97;;
53391;SDS011;41667;51.922;8.850;2024-02-21T09:55:49;7.00;;;3.22;;
53391;SDS011;41667;51.922;8.850;2024-02-21T09:58:15;4.28;;;2.97;;
53391;SDS011;41667;51.922;8.850;2024-02-21T10:00:40;3.90;;;2.90;;
53391;SDS011;41667;51.922;8.850;2024-02-21T10:03:06;6.88;;;3.10;;
53391;SDS011;41667;51.922;8.850;2024-02-21T10:05:34;6.00;;;2.90;;
53391;SDS011;41667;51.922;8.850;2024-02-21T10:08:00;4.20;;;2.40;;
53391;SDS011;41667;51.922;8.850;2024-02-21T10:10:26;3.47;;;2.83;;
53391;SDS011;41667;51.922;8.850;2024-02-21T10:12:52;6.10;;;2.95;;
53391;SDS011;41667;51.922;8.850;2024-02-21T10:15:21;6.43;;;2.75;;
53391;SDS011;41667;51.922;8.850;2024-02-21T10:17:50;6.90;;;3.88;;
53391;SDS011;41667;51.922;8.850;2024-02-21T10:20:23;8.50;;;3.47;;
53391;SDS011;41667;51.922;8.850;2024-02-21T10:22:48;6.85;;;3.63;;
53391;SDS011;41667;51.922;8.850;2024-02-21T10:25:14;6.40;;;3.55;;
53391;SDS011;41667;51.922;8.850;2024-02-21T10:27:39;10.50;;;3.95;;
53391;SDS011;41667;51.922;8.850;2024-02-21T10:30:06;7.22;;;3.70;;
53391;SDS011;41667;51.922;8.850;2024-02-21T10:32:32;5.70;;;4.15;;
53391;SDS011;41667;51.922;8.850;2024-02-21T10:35:04;11.02;;;5.45;;
53391;SDS011;41667;51.922;8.850;2024-02-21T10:37:30;10.05;;;4.22;;
53391;SDS011;41667;51.922;8.850;2024-02-21T10:39:55;6.25;;;3.53;;
53391;SDS011;41667;51.922;8.850;2024-02-21T10:42:21;14.13;;;4.80;;
53391;SDS011;41667;51.922;8.850;2024-02-21T10:44:48;4.13;;;2.53;;
53391;SDS011;41667;51.922;8.850;2024-02-21T10:47:16;9.48;;;4.45;;
53391;SDS011;41667;51.922;8.850;2024-02-21T10:49:46;9.05;;;4.85;;
53391;SDS011;41667;51.922;8.850;2024-02-21T10:52:38;9.25;;;5.15;;
53391;SDS011;41667;51.922;8.850;2024-02-21T10:55:11;11.32;;;6.13;;
53391;SDS011;41667;51.922;8.850;2024-02-21T10:57:45;6.95;;;4.80;;
53391;SDS011;41667;51.922;8.850;2024-02-21T11:00:11;10.35;;;5.18;;
53391;SDS011;41667;51.922;8.850;2024-02-21T11:02:37;9.20;;;4.82;;
53391;SDS011;41667;51.922;8.850;2024-02-21T11:05:04;7.82;;;3.95;;
53391;SDS011;41667;51.922;8.850;2024-02-21T11:07:30;9.57;;;5.10;;
53391;SDS011;41667;51.922;8.850;2024-02-21T11:09:57;7.43;;;4.30;;
53391;SDS011;41667;51.922;8.850;2024-02-21T11:12:24;4.13;;;3.25;;
53391;SDS011;41667;51.922;8.850;2024-02-21T11:14:50;11.77;;;4.93;;
53391;SDS011;41667;51.922;8.850;2024-02-21T11:17:16;10.73;;;5.15;;
53391;SDS011;41667;51.922;8.850;2024-02-21T11:19:46;7.88;;;4.70;;
53391;SDS011;41667;51.922;8.850;2024-02-21T11:22:17;9.77;;;4.63;;
53391;SDS011;41667;51.922;8.850;2024-02-21T11:24:44;7.38;;;3.83;;
53391;SDS011;41667;51.922;8.850;2024-02-21T11:29:54;7.15;;;4.45;;
53391;SDS011;41667;51.922;8.850;2024-02-21T11:32:21;5.47;;;3.47;;
53391;SDS011;41667;51.922;8.850;2024-02-21T11:34:54;6.90;;;3.88;;
53391;SDS011;41667;51.922;8.850;2024-02-21T11:37:26;6.25;;;3.35;;
53391;SDS011;41667;51.922;8.850;2024-02-21T11:39:52;4.50;;;2.75;;
53391;SDS011;41667;51.922;8.850;2024-02-21T11:42:18;5.70;;;2.80;;
53391;SDS011;41667;51.922;8.850;2024-02-21T11:44:43;3.88;;;2.92;;
53391;SDS011;41667;51.922;8.850;2024-02-21T11:47:09;5.00;;;4.28;;
53391;SDS011;41667;51.922;8.850;2024-02-21T11:49:38;3.75;;;2.95;;
53391;SDS011;41667;51.922;8.850;2024-02-21T11:52:07;6.18;;;2.50;;
53391;SDS011;41667;51.922;8.850;2024-02-21T11:54:32;7.65;;;3.13;;
53391;SDS011;41667;51.922;8.850;2024-02-21T11:56:58;4.90;;;2.63;;
53391;SDS011;41667;51.922;8.850;2024-02-21T11:59:24;8.85;;;2.75;;
53391;SDS011;41667;51.922;8.850;2024-02-21T12:01:49;4.55;;;2.53;;
53391;SDS011;41667;51.922;8.850;2024-02-21T12:04:17;9.43;;;3.80;;
53391;SDS011;41667;51.922;8.850;2024-02-21T12:06:44;4.80;;;2.05;;
53391;SDS011;41667;51.922;8.850;2024-02-21T12:09:13;5.95;;;2.40;;
53391;SDS011;41667;51.922;8.850;2024-02-21T12:11:39;4.75;;;2.33;;
53391;SDS011;41667;51.922;8.850;2024-02-21T12:14:04;7.03;;;1.98;;
53391;SDS011;41667;51.922;8.850;2024-02-21T12:16:33;3.53;;;2.13;;
53391;SDS011;41667;51.922;8.850;2024-02-21T12:18:59;4.07;;;2.38;;
53391;SDS011;41667;51.922;8.850;2024-02-21T12:21:34;3.13;;;1.83;;
53391;SDS011;41667;51.922;8.850;2024-02-21T12:26:49;6.30;;;2.42;;
53391;SDS011;41667;51.922;8.850;2024-02-21T12:29:15;7.05;;;2.95;;
53391;SDS011;41667;51.922;8.850;2024-02-21T12:31:40;4.00;;;2.33;;
53391;SDS011;41667;51.922;8.850;2024-02-21T12:34:06;2.42;;;1.63;;
53391;SDS011;41667;51.922;8.850;2024-02-21T12:36:31;2.20;;;1.80;;
53391;SDS011;41667;51.922;8.850;2024-02-21T12:38:57;3.20;;;1.83;;
53391;SDS011;41667;51.922;8.850;2024-02-21T12:41:22;2.72;;;1.90;;
53391;SDS011;41667;51.922;8.850;2024-02-21T12:43:47;5.40;;;2.60;;
53391;SDS011;41667;51.922;8.850;2024-02-21T12:46:13;2.25;;;1.95;;
53391;SDS011;41667;51.922;8.850;2024-02-21T12:48:38;2.25;;;1.70;;
53391;SDS011;41667;51.922;8.850;2024-02-21T12:51:04;6.75;;;2.10;;
53391;SDS011;41667;51.922;8.850;2024-02-21T12:53:30;8.73;;;2.20;;
53391;SDS011;41667;51.922;8.850;2024-02-21T12:55:55;3.97;;;2.40;;
53391;SDS011;41667;51.922;8.850;2024-02-21T12:58:21;3.88;;;2.40;;
53391;SDS011;41667;51.922;8.850;2024-02-21T13:00:46;3.45;;;2.15;;
53391;SDS011;41667;51.922;8.850;2024-02-21T13:03:13;5.20;;;2.38;;
53391;SDS011;41667;51.922;8.850;2024-02-21T13:05:39;6.18;;;2.13;;
53391;SDS011;41667;51.922;8.850;2024-02-21T13:08:07;4.78;;;2.50;;
53391;SDS011;41667;51.922;8.850;2024-02-21T13:10:33;2.80;;;2.10;;
53391;SDS011;41667;51.922;8.850;2024-02-21T13:12:59;6.07;;;2.35;;
53391;SDS011;41667;51.922;8.850;2024-02-21T13:15:25;8.27;;;2.58;;
53391;SDS011;41667;51.922;8.850;2024-02-21T13:17:50;10.18;;;2.58;;
53391;SDS011;41667;51.922;8.850;2024-02-21T13:20:15;9.95;;;2.47;;
53391;SDS011;41667;51.922;8.850;2024-02-21T13:22:40;4.68;;;2.55;;
53391;SDS011;41667;51.922;8.850;2024-02-21T13:25:06;5.82;;;2.60;;
53391;SDS011;41667;51.922;8.850;2024-02-21T13:27:32;2.50;;;2.08;;
53391;SDS011;41667;51.922;8.850;2024-02-21T13:29:58;2.67;;;1.98;;
53391;SDS011;41667;51.922;8.850;2024-02-21T13:32:23;6.38;;;2.38;;
53391;SDS011;41667;51.922;8.850;2024-02-21T13:34:49;3.75;;;1.88;;
53391;SDS011;41667;51.922;8.850;2024-02-21T13:37:14;3.88;;;1.60;;
53391;SDS011;41667;51.922;8.850;2024-02-21T13:39:40;5.68;;;2.60;;
53391;SDS011;41667;51.922;8.850;2024-02-21T13:42:05;3.42;;;1.92;;
53391;SDS011;41667;51.922;8.850;2024-02-21T13:44:31;5.63;;;1.92;;
53391;SDS011;41667;51.922;8.850;2024-02-21T13:46:56;8.93;;;2.28;;
53391;SDS011;41667;51.922;8.850;2024-02-21T13:49:22;5.05;;;1.98;;
53391;SDS011;41667;51.922;8.850;2024-02-21T13:51:47;3.50;;;1.95;;
53391;SDS011;41667;51.922;8.850;2024-02-21T13:54:13;3.45;;;2.08;;
53391;SDS011;41667;51.922;8.850;2024-02-21T13:56:41;4.95;;;2.25;;
53391;SDS011;41667;51.922;8.850;2024-02-21T13:59:07;3.83;;;1.65;;
53391;SDS011;41667;51.922;8.850;2024-02-21T14:01:33;5.88;;;1.98;;
53391;SDS011;41667;51.922;8.850;2024-02-21T14:03:58;2.33;;;1.73;;
53391;SDS011;41667;51.922;8.850;2024-02-21T14:06:23;2.40;;;1.25;;
53391;SDS011;41667;51.922;8.850;2024-02-21T14:08:49;2.90;;;1.42;;
53391;SDS011;41667;51.922;8.850;2024-02-21T14:11:14;3.13;;;1.85;;
53391;SDS011;41667;51.922;8.850;2024-02-21T14:13:40;1.30;;;1.17;;
53391;SDS011;41667;51.922;8.850;2024-02-21T14:16:09;2.35;;;1.58;;
53391;SDS011;41667;51.922;8.850;2024-02-21T14:18:36;4.03;;;1.58;;
53391;SDS011;41667;51.922;8.850;2024-02-21T14:21:02;4.20;;;1.83;;
53391;SDS011;41667;51.922;8.850;2024-02-21T14:23:28;3.53;;;2.33;;
53391;SDS011;41667;51.922;8.850;2024-02-21T14:25:54;6.07;;;2.20;;
53391;SDS011;41667;51.922;8.850;2024-02-21T14:28:19;7.32;;;2.08;;
53391;SDS011;41667;51.922;8.850;2024-02-21T14:30:44;6.72;;;1.50;;
53391;SDS011;41667;51.922;8.850;2024-02-21T14:33:12;2.90;;;1.48;;
53391;SDS011;41667;51.922;8.850;2024-02-21T14:35:37;4.63;;;1.90;;
53391;SDS011;41667;51.922;8.850;2024-02-21T14:38:03;1.77;;;1.50;;
53391;SDS011;41667;51.922;8.850;2024-02-21T14:40:28;3.20;;;1.60;;